ASA115 PAJN-PAVD
Flight info
| Callsign | ASA115 |
|---|---|
| Flight time | N/A |
| Altitude | 16000 |
| Route | JNU7 SSR T278 HAPIT T269 JOH OLLEO |
| Aircraft | DH8D/M-SDE2E3FGRY/H |
Departure
| Time | 2026-04-29 11:53 |
|---|---|
| Airport | Juneau International Airport (PAJN) |
Arrival
| Time | N/A |
|---|---|
| Airport | Valdez Pioneer Field (PAVD) |
| Time | Latitude | Longitude | Altitude | Speed | Heading |
|---|---|---|---|---|---|
| 2026-04-29 11:26 | 58.35925 | -134.58557 | -17 ft | 0 kts | 179° |
| 2026-04-29 11:48 | 58.35920 | -134.58557 | -17 ft | 2 kts | 179° |
| 2026-04-29 11:48 | 58.35887 | -134.58572 | -17 ft | 8 kts | 197° |
| 2026-04-29 11:48 | 58.35819 | -134.58623 | -18 ft | 11 kts | 211° |
| 2026-04-29 11:49 | 58.35759 | -134.58734 | -18 ft | 14 kts | 265° |
| 2026-04-29 11:49 | 58.35783 | -134.58914 | -18 ft | 12 kts | 283° |
| 2026-04-29 11:49 | 58.35810 | -134.59076 | -17 ft | 13 kts | 284° |
| 2026-04-29 11:49 | 58.35836 | -134.59270 | -17 ft | 16 kts | 284° |
| 2026-04-29 11:50 | 58.35867 | -134.59497 | -17 ft | 18 kts | 282° |
| 2026-04-29 11:50 | 58.35811 | -134.59668 | -19 ft | 15 kts | 192° |
| 2026-04-29 11:50 | 58.35775 | -134.59625 | -18 ft | 0 kts | 105° |
| 2026-04-29 11:52 | 58.35769 | -134.59557 | -17 ft | 13 kts | 98° |
| 2026-04-29 11:52 | 58.35683 | -134.58966 | -17 ft | 86 kts | 104° |
| 2026-04-29 11:52 | 58.35475 | -134.57466 | -18 ft | 143 kts | 104° |
| 2026-04-29 11:53 | 58.35190 | -134.55508 | 247 ft | 158 kts | 105° |
| 2026-04-29 11:53 | 58.34823 | -134.53522 | 801 ft | 162 kts | 110° |
| 2026-04-29 11:53 | 58.34245 | -134.51666 | 1298 ft | 168 kts | 143° |
| 2026-04-29 11:53 | 58.33126 | -134.51408 | 1808 ft | 171 kts | 201° |
| 2026-04-29 11:54 | 58.32373 | -134.53136 | 2267 ft | 180 kts | 257° |
| 2026-04-29 11:54 | 58.32591 | -134.55441 | 2741 ft | 185 kts | 291° |
| 2026-04-29 11:54 | 58.33145 | -134.57733 | 3253 ft | 191 kts | 290° |
| 2026-04-29 11:54 | 58.33687 | -134.60069 | 3737 ft | 195 kts | 289° |
| 2026-04-29 11:55 | 58.34225 | -134.62463 | 4213 ft | 197 kts | 288° |
| 2026-04-29 11:55 | 58.34753 | -134.64876 | 4685 ft | 198 kts | 288° |
| 2026-04-29 11:55 | 58.35275 | -134.67303 | 5159 ft | 200 kts | 287° |
| 2026-04-29 11:55 | 58.35771 | -134.69771 | 5629 ft | 199 kts | 280° |
| 2026-04-29 11:56 | 58.35924 | -134.72359 | 6105 ft | 197 kts | 266° |
| 2026-04-29 11:56 | 58.35939 | -134.74951 | 6578 ft | 198 kts | 265° |
| 2026-04-29 11:56 | 58.35955 | -134.77603 | 7054 ft | 200 kts | 265° |
| 2026-04-29 11:56 | 58.35967 | -134.80278 | 7521 ft | 202 kts | 265° |
| 2026-04-29 11:57 | 58.35979 | -134.82977 | 7989 ft | 204 kts | 265° |
| 2026-04-29 11:57 | 58.35907 | -134.85658 | 8458 ft | 204 kts | 258° |
| 2026-04-29 11:57 | 58.35690 | -134.88338 | 8938 ft | 207 kts | 256° |
| 2026-04-29 11:57 | 58.35464 | -134.91048 | 9394 ft | 211 kts | 257° |
| 2026-04-29 11:58 | 58.35234 | -134.93840 | 9865 ft | 215 kts | 257° |
| 2026-04-29 11:58 | 58.35003 | -134.96703 | 10339 ft | 218 kts | 257° |
| 2026-04-29 11:58 | 58.34775 | -134.99551 | 10801 ft | 222 kts | 257° |
| 2026-04-29 11:58 | 58.34541 | -135.02493 | 11263 ft | 226 kts | 257° |
| 2026-04-29 11:59 | 58.34307 | -135.05453 | 11718 ft | 230 kts | 258° |
| 2026-04-29 11:59 | 58.34069 | -135.08462 | 12172 ft | 234 kts | 258° |
| 2026-04-29 11:59 | 58.33825 | -135.11563 | 12632 ft | 238 kts | 258° |
| 2026-04-29 11:59 | 58.33581 | -135.14658 | 13081 ft | 241 kts | 258° |
| 2026-04-29 12:00 | 58.33331 | -135.17831 | 13531 ft | 244 kts | 258° |
| 2026-04-29 12:00 | 58.33080 | -135.21007 | 13979 ft | 246 kts | 258° |
| 2026-04-29 12:00 | 58.32828 | -135.24202 | 14428 ft | 247 kts | 258° |
| 2026-04-29 12:00 | 58.32569 | -135.27483 | 14891 ft | 248 kts | 258° |
| 2026-04-29 12:01 | 58.32314 | -135.30698 | 15338 ft | 249 kts | 258° |
| 2026-04-29 12:01 | 58.32058 | -135.33922 | 15789 ft | 248 kts | 257° |
| 2026-04-29 12:01 | 58.31797 | -135.37181 | 16145 ft | 252 kts | 257° |
| 2026-04-29 12:01 | 58.31522 | -135.40562 | 16257 ft | 264 kts | 257° |
| 2026-04-29 12:02 | 58.31234 | -135.44104 | 16282 ft | 277 kts | 257° |
| 2026-04-29 12:02 | 58.30931 | -135.47798 | 16295 ft | 288 kts | 257° |
| 2026-04-29 12:02 | 58.30619 | -135.51607 | 16292 ft | 298 kts | 257° |
| 2026-04-29 12:02 | 58.30292 | -135.55583 | 16299 ft | 306 kts | 258° |
| 2026-04-29 12:03 | 58.29957 | -135.59654 | 16292 ft | 310 kts | 257° |
| 2026-04-29 12:03 | 58.29621 | -135.63736 | 16280 ft | 311 kts | 257° |
| 2026-04-29 12:03 | 58.29286 | -135.67790 | 16287 ft | 311 kts | 257° |
| 2026-04-29 12:03 | 58.28952 | -135.71834 | 16293 ft | 312 kts | 257° |
| 2026-04-29 12:04 | 58.28609 | -135.75967 | 16273 ft | 312 kts | 257° |
| 2026-04-29 12:04 | 58.28270 | -135.80046 | 16272 ft | 312 kts | 257° |
| 2026-04-29 12:04 | 58.27905 | -135.84139 | 16281 ft | 312 kts | 255° |
| 2026-04-29 12:04 | 58.27484 | -135.88220 | 16288 ft | 312 kts | 255° |
| 2026-04-29 12:05 | 58.27208 | -135.90880 | 16287 ft | 312 kts | 255° |
| 2026-04-29 12:05 | 58.26644 | -135.96297 | 16290 ft | 312 kts | 255° |
| 2026-04-29 12:05 | 58.26217 | -136.00403 | 16294 ft | 312 kts | 255° |
| 2026-04-29 12:05 | 58.25798 | -136.04433 | 16295 ft | 312 kts | 255° |
| 2026-04-29 12:06 | 58.25377 | -136.08478 | 16297 ft | 312 kts | 255° |
| 2026-04-29 12:06 | 58.24957 | -136.12503 | 16299 ft | 312 kts | 255° |
| 2026-04-29 12:06 | 58.24537 | -136.16525 | 16302 ft | 312 kts | 255° |
| 2026-04-29 12:06 | 58.24113 | -136.20575 | 16301 ft | 313 kts | 255° |
| 2026-04-29 12:07 | 58.23683 | -136.24670 | 16299 ft | 313 kts | 254° |
| 2026-04-29 12:07 | 58.23252 | -136.28767 | 16295 ft | 313 kts | 254° |
| 2026-04-29 12:07 | 58.22824 | -136.32819 | 16294 ft | 313 kts | 255° |
| 2026-04-29 12:07 | 58.22398 | -136.36844 | 16292 ft | 313 kts | 255° |
| 2026-04-29 12:08 | 58.21965 | -136.40920 | 16287 ft | 313 kts | 255° |
| 2026-04-29 12:08 | 58.21536 | -136.44946 | 16291 ft | 313 kts | 254° |
| 2026-04-29 12:08 | 58.21105 | -136.48981 | 16290 ft | 314 kts | 254° |
| 2026-04-29 12:08 | 58.20670 | -136.53046 | 16287 ft | 314 kts | 254° |
| 2026-04-29 12:09 | 58.20230 | -136.57134 | 16288 ft | 314 kts | 254° |
| 2026-04-29 12:09 | 58.19792 | -136.61197 | 16280 ft | 314 kts | 254° |
| 2026-04-29 12:09 | 58.19445 | -136.65334 | 16269 ft | 317 kts | 261° |
| 2026-04-29 12:09 | 58.19435 | -136.69531 | 16292 ft | 319 kts | 265° |
| 2026-04-29 12:10 | 58.19474 | -136.73708 | 16290 ft | 320 kts | 265° |
| 2026-04-29 12:10 | 58.19513 | -136.77911 | 16288 ft | 320 kts | 265° |
| 2026-04-29 12:10 | 58.19548 | -136.82165 | 16282 ft | 320 kts | 265° |
| 2026-04-29 12:10 | 58.19581 | -136.86435 | 16281 ft | 320 kts | 264° |
| 2026-04-29 12:11 | 58.19609 | -136.90643 | 16277 ft | 321 kts | 264° |
| 2026-04-29 12:11 | 58.19636 | -136.94894 | 16273 ft | 321 kts | 264° |
| 2026-04-29 12:11 | 58.19659 | -136.99072 | 16277 ft | 321 kts | 264° |
| 2026-04-29 12:11 | 58.19680 | -137.03334 | 16275 ft | 322 kts | 264° |
| 2026-04-29 12:12 | 58.19696 | -137.07544 | 16268 ft | 322 kts | 264° |
| 2026-04-29 12:12 | 58.19711 | -137.11795 | 16267 ft | 323 kts | 264° |
| 2026-04-29 12:12 | 58.19721 | -137.16017 | 16264 ft | 323 kts | 264° |
| 2026-04-29 12:12 | 58.19735 | -137.20244 | 16267 ft | 323 kts | 264° |
| 2026-04-29 12:13 | 58.19745 | -137.24528 | 16266 ft | 323 kts | 264° |
| 2026-04-29 12:13 | 58.19752 | -137.28731 | 16268 ft | 323 kts | 264° |
| 2026-04-29 12:13 | 58.19779 | -137.33025 | 16260 ft | 325 kts | 266° |
| 2026-04-29 12:13 | 58.20332 | -137.37227 | 16253 ft | 338 kts | 290° |
| 2026-04-29 12:14 | 58.21769 | -137.40771 | 16285 ft | 348 kts | 307° |
| 2026-04-29 12:14 | 58.23489 | -137.43974 | 16261 ft | 351 kts | 309° |
| 2026-04-29 12:14 | 58.25253 | -137.47160 | 16257 ft | 351 kts | 310° |
| 2026-04-29 12:14 | 58.27040 | -137.50336 | 16262 ft | 352 kts | 310° |
| 2026-04-29 12:15 | 58.28827 | -137.53484 | 16268 ft | 352 kts | 310° |
| 2026-04-29 12:15 | 58.30638 | -137.56661 | 16271 ft | 352 kts | 311° |
| 2026-04-29 12:15 | 58.32437 | -137.59802 | 16266 ft | 352 kts | 311° |
| 2026-04-29 12:15 | 58.34223 | -137.62920 | 16268 ft | 352 kts | 311° |
| 2026-04-29 12:16 | 58.36031 | -137.66064 | 16271 ft | 352 kts | 310° |
| 2026-04-29 12:16 | 58.37853 | -137.69232 | 16270 ft | 352 kts | 310° |
| 2026-04-29 12:16 | 58.39643 | -137.72348 | 16277 ft | 352 kts | 310° |
| 2026-04-29 12:16 | 58.41458 | -137.75511 | 16266 ft | 352 kts | 310° |
| 2026-04-29 12:17 | 58.43261 | -137.78651 | 16256 ft | 352 kts | 310° |
| 2026-04-29 12:17 | 58.45062 | -137.81787 | 16265 ft | 352 kts | 311° |
| 2026-04-29 12:17 | 58.46864 | -137.84927 | 16281 ft | 351 kts | 310° |
| 2026-04-29 12:17 | 58.48664 | -137.88074 | 16279 ft | 351 kts | 310° |
| 2026-04-29 12:18 | 58.50462 | -137.91216 | 16259 ft | 351 kts | 310° |
| 2026-04-29 12:18 | 58.52242 | -137.94331 | 16264 ft | 350 kts | 310° |
| 2026-04-29 12:18 | 58.54026 | -137.97461 | 16271 ft | 350 kts | 310° |
| 2026-04-29 12:18 | 58.55785 | -138.00542 | 16265 ft | 349 kts | 311° |
| 2026-04-29 12:19 | 58.57557 | -138.03657 | 16259 ft | 349 kts | 310° |
| 2026-04-29 12:19 | 58.59340 | -138.06795 | 16267 ft | 348 kts | 310° |
| 2026-04-29 12:19 | 58.61100 | -138.09897 | 16274 ft | 347 kts | 310° |
| 2026-04-29 12:19 | 58.62876 | -138.13031 | 16273 ft | 347 kts | 310° |
| 2026-04-29 12:20 | 58.64655 | -138.16177 | 16271 ft | 346 kts | 310° |
| 2026-04-29 12:20 | 58.66403 | -138.19270 | 16268 ft | 346 kts | 310° |
| 2026-04-29 12:20 | 58.68176 | -138.22414 | 16263 ft | 346 kts | 310° |
| 2026-04-29 12:20 | 58.69946 | -138.25554 | 16256 ft | 346 kts | 310° |
| 2026-04-29 12:21 | 58.71689 | -138.28654 | 16269 ft | 346 kts | 310° |
| 2026-04-29 12:21 | 58.73462 | -138.31818 | 16270 ft | 345 kts | 309° |
| 2026-04-29 12:21 | 58.75229 | -138.34958 | 16256 ft | 345 kts | 310° |
| 2026-04-29 12:21 | 58.76964 | -138.38055 | 16243 ft | 345 kts | 310° |
| 2026-04-29 12:22 | 58.78722 | -138.41194 | 16260 ft | 344 kts | 309° |
| 2026-04-29 12:22 | 58.80476 | -138.44341 | 16252 ft | 343 kts | 310° |
| 2026-04-29 12:22 | 58.82206 | -138.47446 | 16266 ft | 343 kts | 310° |
| 2026-04-29 12:22 | 58.83964 | -138.50600 | 16256 ft | 343 kts | 309° |
| 2026-04-29 12:23 | 58.85690 | -138.53703 | 16247 ft | 342 kts | 310° |
| 2026-04-29 12:23 | 58.87432 | -138.56836 | 16253 ft | 342 kts | 310° |
| 2026-04-29 12:23 | 58.89149 | -138.59930 | 16260 ft | 341 kts | 310° |
| 2026-04-29 12:23 | 58.90887 | -138.63069 | 16258 ft | 341 kts | 309° |
| 2026-04-29 12:24 | 58.92623 | -138.66208 | 16261 ft | 341 kts | 309° |
| 2026-04-29 12:24 | 58.93776 | -138.68297 | 16255 ft | 341 kts | 309° |
| 2026-04-29 12:24 | 58.96069 | -138.72456 | 16251 ft | 342 kts | 309° |
| 2026-04-29 12:24 | 58.97807 | -138.75617 | 16258 ft | 342 kts | 309° |
| 2026-04-29 12:25 | 58.99529 | -138.78751 | 16258 ft | 342 kts | 309° |
| 2026-04-29 12:25 | 59.01278 | -138.81908 | 16254 ft | 343 kts | 310° |
| 2026-04-29 12:25 | 59.04919 | -138.87895 | 16249 ft | 346 kts | 312° |
| 2026-04-29 12:26 | 59.06775 | -138.90924 | 16262 ft | 347 kts | 312° |
| 2026-04-29 12:26 | 59.08601 | -138.93912 | 16264 ft | 348 kts | 312° |
| 2026-04-29 12:26 | 59.10445 | -138.96942 | 16265 ft | 348 kts | 312° |
| 2026-04-29 12:26 | 59.12290 | -138.99986 | 16251 ft | 348 kts | 312° |
| 2026-04-29 12:27 | 59.14152 | -139.03065 | 16266 ft | 348 kts | 312° |
| 2026-04-29 12:27 | 59.15986 | -139.06108 | 16263 ft | 348 kts | 312° |
| 2026-04-29 12:27 | 59.17829 | -139.09170 | 16259 ft | 349 kts | 312° |
| 2026-04-29 12:27 | 59.19690 | -139.12267 | 16261 ft | 349 kts | 311° |
| 2026-04-29 12:28 | 59.21529 | -139.15328 | 16256 ft | 350 kts | 311° |
| 2026-04-29 12:28 | 59.23364 | -139.18390 | 16254 ft | 350 kts | 311° |
| 2026-04-29 12:28 | 59.25230 | -139.21509 | 16268 ft | 350 kts | 312° |
| 2026-04-29 12:28 | 59.27056 | -139.24567 | 16270 ft | 349 kts | 312° |
| 2026-04-29 12:29 | 59.28905 | -139.27667 | 16275 ft | 349 kts | 311° |
| 2026-04-29 12:29 | 59.30752 | -139.30769 | 16269 ft | 350 kts | 312° |
| 2026-04-29 12:29 | 59.32590 | -139.33862 | 16255 ft | 350 kts | 312° |
| 2026-04-29 12:29 | 59.34450 | -139.36995 | 16259 ft | 350 kts | 312° |
| 2026-04-29 12:30 | 59.36321 | -139.40149 | 16277 ft | 349 kts | 312° |
| 2026-04-29 12:30 | 59.38152 | -139.43247 | 16274 ft | 350 kts | 312° |
| 2026-04-29 12:30 | 59.40001 | -139.46373 | 16273 ft | 350 kts | 312° |
| 2026-04-29 12:30 | 59.41861 | -139.49525 | 16275 ft | 350 kts | 312° |
| 2026-04-29 12:31 | 59.43695 | -139.52638 | 16284 ft | 351 kts | 312° |
| 2026-04-29 12:31 | 59.45544 | -139.55782 | 16303 ft | 350 kts | 312° |
| 2026-04-29 12:31 | 59.47400 | -139.58943 | 16280 ft | 350 kts | 312° |
| 2026-04-29 12:31 | 59.49243 | -139.62083 | 16268 ft | 350 kts | 313° |
| 2026-04-29 12:32 | 59.50899 | -139.65596 | 16229 ft | 337 kts | 294° |
| 2026-04-29 12:32 | 59.51754 | -139.69788 | 16288 ft | 327 kts | 281° |
| 2026-04-29 12:32 | 59.52479 | -139.74013 | 16291 ft | 327 kts | 281° |
| 2026-04-29 12:32 | 59.53207 | -139.78284 | 16285 ft | 328 kts | 281° |
| 2026-04-29 12:33 | 59.53928 | -139.82547 | 16267 ft | 328 kts | 281° |
| 2026-04-29 12:33 | 59.54662 | -139.86894 | 16246 ft | 329 kts | 281° |
| 2026-04-29 12:33 | 59.55376 | -139.91136 | 16275 ft | 329 kts | 281° |
| 2026-04-29 12:33 | 59.56102 | -139.95454 | 16261 ft | 329 kts | 281° |
| 2026-04-29 12:34 | 59.56818 | -139.99728 | 16262 ft | 329 kts | 281° |
| 2026-04-29 12:34 | 59.57502 | -140.03818 | 16272 ft | 330 kts | 281° |
| 2026-04-29 12:34 | 59.58220 | -140.08127 | 16270 ft | 330 kts | 281° |
| 2026-04-29 12:34 | 59.58934 | -140.12418 | 16272 ft | 331 kts | 281° |
| 2026-04-29 12:35 | 59.59642 | -140.16699 | 16266 ft | 331 kts | 281° |
| 2026-04-29 12:35 | 59.60233 | -140.21095 | 16271 ft | 328 kts | 276° |
| 2026-04-29 12:35 | 59.60730 | -140.25452 | 16270 ft | 328 kts | 276° |
| 2026-04-29 12:35 | 59.61229 | -140.29846 | 16267 ft | 328 kts | 276° |
| 2026-04-29 12:36 | 59.61724 | -140.34227 | 16271 ft | 328 kts | 276° |
| 2026-04-29 12:36 | 59.62219 | -140.38597 | 16262 ft | 328 kts | 276° |
| 2026-04-29 12:36 | 59.62718 | -140.42981 | 16276 ft | 329 kts | 276° |
| 2026-04-29 12:36 | 59.63218 | -140.47401 | 16266 ft | 329 kts | 276° |
| 2026-04-29 12:37 | 59.63715 | -140.51814 | 16263 ft | 329 kts | 276° |
| 2026-04-29 12:37 | 59.64208 | -140.56221 | 16265 ft | 330 kts | 276° |
| 2026-04-29 12:37 | 59.64701 | -140.60608 | 16265 ft | 330 kts | 276° |
| 2026-04-29 12:37 | 59.65200 | -140.65073 | 16262 ft | 330 kts | 276° |
| 2026-04-29 12:38 | 59.65688 | -140.69487 | 16268 ft | 330 kts | 276° |
| 2026-04-29 12:38 | 59.66168 | -140.73859 | 16262 ft | 330 kts | 275° |
| 2026-04-29 12:38 | 59.66658 | -140.78296 | 16263 ft | 330 kts | 276° |
| 2026-04-29 12:38 | 59.67153 | -140.82762 | 16260 ft | 331 kts | 276° |
| 2026-04-29 12:39 | 59.67641 | -140.87181 | 16268 ft | 331 kts | 276° |
| 2026-04-29 12:39 | 59.68126 | -140.91614 | 16270 ft | 331 kts | 276° |
| 2026-04-29 12:39 | 59.68609 | -140.96051 | 16264 ft | 331 kts | 276° |
| 2026-04-29 12:39 | 59.69086 | -141.00484 | 16265 ft | 331 kts | 275° |
| 2026-04-29 12:40 | 59.69591 | -141.04941 | 16260 ft | 333 kts | 279° |
| 2026-04-29 12:40 | 59.70498 | -141.09204 | 16295 ft | 339 kts | 290° |
| 2026-04-29 12:40 | 59.71579 | -141.13350 | 16280 ft | 340 kts | 291° |
| 2026-04-29 12:40 | 59.72670 | -141.17503 | 16269 ft | 341 kts | 291° |
| 2026-04-29 12:41 | 59.73773 | -141.21712 | 16265 ft | 341 kts | 291° |
| 2026-04-29 12:41 | 59.74857 | -141.25870 | 16268 ft | 341 kts | 291° |
| 2026-04-29 12:41 | 59.75944 | -141.30061 | 16270 ft | 342 kts | 291° |
| 2026-04-29 12:41 | 59.76658 | -141.32825 | 16266 ft | 342 kts | 291° |
| 2026-04-29 12:42 | 59.77738 | -141.37028 | 16269 ft | 342 kts | 291° |
| 2026-04-29 12:42 | 59.78815 | -141.41226 | 16268 ft | 342 kts | 290° |
| 2026-04-29 12:42 | 59.80270 | -141.46927 | 16265 ft | 342 kts | 291° |
| 2026-04-29 12:42 | 59.81333 | -141.51115 | 16265 ft | 342 kts | 291° |
| 2026-04-29 12:43 | 59.82397 | -141.55307 | 16266 ft | 342 kts | 291° |
| 2026-04-29 12:43 | 59.83114 | -141.58133 | 16264 ft | 342 kts | 290° |
| 2026-04-29 12:43 | 59.84537 | -141.63754 | 16264 ft | 342 kts | 290° |
| 2026-04-29 12:43 | 59.85604 | -141.67978 | 16263 ft | 342 kts | 290° |
| 2026-04-29 12:44 | 59.86661 | -141.72182 | 16257 ft | 342 kts | 290° |
| 2026-04-29 12:44 | 59.87722 | -141.76401 | 16256 ft | 343 kts | 290° |
| 2026-04-29 12:44 | 59.88786 | -141.80650 | 16252 ft | 342 kts | 289° |
| 2026-04-29 12:44 | 59.89609 | -141.85053 | 16255 ft | 336 kts | 280° |
| 2026-04-29 12:45 | 59.90251 | -141.89528 | 16255 ft | 336 kts | 279° |
| 2026-04-29 12:45 | 59.90889 | -141.94019 | 16257 ft | 336 kts | 279° |
| 2026-04-29 12:45 | 59.91517 | -141.98454 | 16256 ft | 337 kts | 279° |
| 2026-04-29 12:45 | 59.92153 | -142.02983 | 16255 ft | 337 kts | 279° |
| 2026-04-29 12:46 | 59.92786 | -142.07452 | 16259 ft | 337 kts | 279° |
| 2026-04-29 12:46 | 59.93418 | -142.11925 | 16260 ft | 337 kts | 279° |
| 2026-04-29 12:46 | 59.94055 | -142.16438 | 16260 ft | 337 kts | 279° |
| 2026-04-29 12:46 | 59.94685 | -142.20921 | 16251 ft | 337 kts | 279° |
| 2026-04-29 12:47 | 59.95310 | -142.25371 | 16249 ft | 337 kts | 279° |
| 2026-04-29 12:47 | 59.95940 | -142.29875 | 16262 ft | 337 kts | 279° |
| 2026-04-29 12:47 | 59.96564 | -142.34334 | 16255 ft | 337 kts | 279° |
| 2026-04-29 12:47 | 59.97201 | -142.38875 | 16255 ft | 337 kts | 280° |
| 2026-04-29 12:48 | 59.97826 | -142.43346 | 16254 ft | 337 kts | 279° |
| 2026-04-29 12:48 | 59.98447 | -142.47819 | 16247 ft | 338 kts | 279° |
| 2026-04-29 12:48 | 59.99078 | -142.52362 | 16248 ft | 337 kts | 279° |
| 2026-04-29 12:48 | 59.99698 | -142.56865 | 16241 ft | 338 kts | 279° |
| 2026-04-29 12:49 | 60.00304 | -142.61435 | 16245 ft | 336 kts | 277° |
| 2026-04-29 12:49 | 60.00773 | -142.66007 | 16248 ft | 335 kts | 274° |
| 2026-04-29 12:49 | 60.01208 | -142.70558 | 16247 ft | 335 kts | 274° |
| 2026-04-29 12:49 | 60.01648 | -142.75140 | 16244 ft | 336 kts | 275° |
| 2026-04-29 12:50 | 60.02093 | -142.79746 | 16235 ft | 336 kts | 275° |
| 2026-04-29 12:50 | 60.02541 | -142.84351 | 16236 ft | 336 kts | 275° |
| 2026-04-29 12:50 | 60.02989 | -142.88931 | 16239 ft | 336 kts | 275° |
| 2026-04-29 12:50 | 60.03436 | -142.93507 | 16236 ft | 337 kts | 275° |
| 2026-04-29 12:51 | 60.03885 | -142.98123 | 16240 ft | 336 kts | 275° |
| 2026-04-29 12:51 | 60.04289 | -143.02283 | 16235 ft | 337 kts | 275° |
| 2026-04-29 12:51 | 60.04736 | -143.06905 | 16232 ft | 337 kts | 275° |
| 2026-04-29 12:51 | 60.05180 | -143.11508 | 16228 ft | 337 kts | 275° |
| 2026-04-29 12:52 | 60.05627 | -143.16162 | 16229 ft | 336 kts | 275° |
| 2026-04-29 12:52 | 60.06067 | -143.20764 | 16239 ft | 336 kts | 275° |
| 2026-04-29 12:52 | 60.06533 | -143.25323 | 16223 ft | 338 kts | 278° |
| 2026-04-29 12:52 | 60.07137 | -143.29889 | 16240 ft | 338 kts | 279° |
| 2026-04-29 12:53 | 60.07751 | -143.34390 | 16241 ft | 338 kts | 279° |
| 2026-04-29 12:53 | 60.08374 | -143.38995 | 16231 ft | 339 kts | 279° |
| 2026-04-29 12:53 | 60.08982 | -143.43529 | 16231 ft | 339 kts | 279° |
| 2026-04-29 12:53 | 60.09594 | -143.48129 | 16226 ft | 339 kts | 279° |
| 2026-04-29 12:54 | 60.10199 | -143.52705 | 16223 ft | 339 kts | 279° |
| 2026-04-29 12:54 | 60.10798 | -143.57263 | 16227 ft | 338 kts | 279° |
| 2026-04-29 12:54 | 60.11394 | -143.61827 | 16222 ft | 338 kts | 279° |
| 2026-04-29 12:54 | 60.11992 | -143.66422 | 16219 ft | 338 kts | 278° |
| 2026-04-29 12:55 | 60.12538 | -143.71001 | 16213 ft | 334 kts | 274° |
| 2026-04-29 12:55 | 60.12546 | -143.75613 | 16247 ft | 325 kts | 259° |
| 2026-04-29 12:55 | 60.12339 | -143.80135 | 16227 ft | 326 kts | 259° |
| 2026-04-29 12:55 | 60.12123 | -143.84680 | 16217 ft | 326 kts | 259° |
| 2026-04-29 12:56 | 60.11909 | -143.89156 | 16220 ft | 327 kts | 259° |
| 2026-04-29 12:56 | 60.11691 | -143.93724 | 16223 ft | 327 kts | 259° |
| 2026-04-29 12:56 | 60.11476 | -143.98254 | 16235 ft | 327 kts | 259° |
| 2026-04-29 12:56 | 60.11290 | -144.02165 | 16223 ft | 327 kts | 259° |
| 2026-04-29 12:57 | 60.11074 | -144.06718 | 16235 ft | 327 kts | 259° |
| 2026-04-29 12:57 | 60.10854 | -144.11333 | 16229 ft | 327 kts | 259° |
| 2026-04-29 12:57 | 60.10636 | -144.15877 | 16232 ft | 327 kts | 259° |
| 2026-04-29 12:57 | 60.10485 | -144.20433 | 16208 ft | 331 kts | 266° |
| 2026-04-29 12:58 | 60.11090 | -144.24919 | 16241 ft | 342 kts | 291° |
| 2026-04-29 12:58 | 60.12317 | -144.28979 | 16230 ft | 346 kts | 297° |
| 2026-04-29 12:58 | 60.13633 | -144.33040 | 16227 ft | 347 kts | 297° |
| 2026-04-29 12:58 | 60.14954 | -144.37099 | 16233 ft | 347 kts | 297° |
| 2026-04-29 12:59 | 60.16255 | -144.41110 | 16227 ft | 348 kts | 298° |
| 2026-04-29 12:59 | 60.17578 | -144.45207 | 16219 ft | 348 kts | 297° |
| 2026-04-29 12:59 | 60.18901 | -144.49321 | 16214 ft | 349 kts | 297° |
| 2026-04-29 12:59 | 60.20209 | -144.53400 | 16210 ft | 349 kts | 297° |
| 2026-04-29 13:00 | 60.21514 | -144.57483 | 16222 ft | 349 kts | 297° |
| 2026-04-29 13:00 | 60.22813 | -144.61559 | 16232 ft | 348 kts | 297° |
| 2026-04-29 13:00 | 60.24130 | -144.65701 | 16229 ft | 349 kts | 297° |
| 2026-04-29 13:00 | 60.25400 | -144.69820 | 16220 ft | 347 kts | 293° |
| 2026-04-29 13:01 | 60.26212 | -144.74265 | 16252 ft | 338 kts | 278° |
| 2026-04-29 13:01 | 60.26782 | -144.78865 | 16244 ft | 338 kts | 278° |
| 2026-04-29 13:01 | 60.27346 | -144.83473 | 16233 ft | 338 kts | 278° |
| 2026-04-29 13:01 | 60.27906 | -144.88065 | 16233 ft | 339 kts | 278° |
| 2026-04-29 13:02 | 60.28462 | -144.92615 | 16237 ft | 339 kts | 278° |
| 2026-04-29 13:02 | 60.29023 | -144.97214 | 16235 ft | 339 kts | 278° |
| 2026-04-29 13:02 | 60.29591 | -145.01860 | 16236 ft | 339 kts | 278° |
| 2026-04-29 13:02 | 60.30158 | -145.06509 | 16239 ft | 340 kts | 278° |
| 2026-04-29 13:03 | 60.30726 | -145.11177 | 16236 ft | 340 kts | 278° |
| 2026-04-29 13:03 | 60.31284 | -145.15771 | 16224 ft | 339 kts | 278° |
| 2026-04-29 13:03 | 60.31846 | -145.20403 | 16234 ft | 339 kts | 278° |
| 2026-04-29 13:03 | 60.32410 | -145.25072 | 16222 ft | 340 kts | 278° |
| 2026-04-29 13:04 | 60.32967 | -145.29689 | 16235 ft | 340 kts | 278° |
| 2026-04-29 13:04 | 60.33528 | -145.34349 | 16218 ft | 340 kts | 278° |
| 2026-04-29 13:04 | 60.34084 | -145.38979 | 16235 ft | 340 kts | 278° |
| 2026-04-29 13:04 | 60.34640 | -145.43633 | 16224 ft | 340 kts | 278° |
| 2026-04-29 13:05 | 60.35194 | -145.48279 | 16241 ft | 341 kts | 278° |
| 2026-04-29 13:05 | 60.35749 | -145.52953 | 16248 ft | 341 kts | 278° |
| 2026-04-29 13:05 | 60.36301 | -145.57616 | 16232 ft | 341 kts | 278° |
| 2026-04-29 13:05 | 60.36846 | -145.62225 | 16222 ft | 341 kts | 278° |
| 2026-04-29 13:06 | 60.37402 | -145.66954 | 16232 ft | 341 kts | 277° |
| 2026-04-29 13:06 | 60.37948 | -145.71605 | 16213 ft | 341 kts | 277° |
| 2026-04-29 13:06 | 60.38498 | -145.76309 | 16202 ft | 342 kts | 277° |
| 2026-04-29 13:06 | 60.39045 | -145.81009 | 16210 ft | 342 kts | 277° |
| 2026-04-29 13:07 | 60.39595 | -145.85745 | 16214 ft | 341 kts | 277° |
| 2026-04-29 13:07 | 60.40136 | -145.90422 | 16219 ft | 341 kts | 277° |
| 2026-04-29 13:07 | 60.40672 | -145.95070 | 16212 ft | 342 kts | 278° |
| 2026-04-29 13:07 | 60.41212 | -145.99765 | 16244 ft | 341 kts | 277° |
| 2026-04-29 13:08 | 60.41756 | -146.04517 | 16234 ft | 341 kts | 277° |
| 2026-04-29 13:08 | 60.42294 | -146.09225 | 16234 ft | 341 kts | 277° |
| 2026-04-29 13:08 | 60.42827 | -146.13901 | 16231 ft | 341 kts | 277° |
| 2026-04-29 13:08 | 60.43356 | -146.18576 | 16225 ft | 341 kts | 278° |
| 2026-04-29 13:09 | 60.43888 | -146.23285 | 16228 ft | 341 kts | 278° |
| 2026-04-29 13:09 | 60.44412 | -146.27933 | 16135 ft | 334 kts | 277° |
| 2026-04-29 13:09 | 60.44921 | -146.32494 | 15641 ft | 332 kts | 278° |
| 2026-04-29 13:09 | 60.45428 | -146.37077 | 14852 ft | 331 kts | 278° |
| 2026-04-29 13:10 | 60.45927 | -146.41611 | 13876 ft | 334 kts | 279° |
| 2026-04-29 13:10 | 60.46426 | -146.46147 | 12879 ft | 334 kts | 279° |
| 2026-04-29 13:10 | 60.46927 | -146.50685 | 12115 ft | 326 kts | 280° |
| 2026-04-29 13:10 | 60.47412 | -146.55081 | 11590 ft | 313 kts | 280° |
| 2026-04-29 13:11 | 60.47960 | -146.59265 | 11079 ft | 303 kts | 289° |
| 2026-04-29 13:11 | 60.49118 | -146.62822 | 10503 ft | 296 kts | 309° |
| 2026-04-29 13:11 | 60.50449 | -146.65910 | 10037 ft | 287 kts | 309° |
| 2026-04-29 13:11 | 60.51743 | -146.68889 | 9623 ft | 276 kts | 309° |
| 2026-04-29 13:12 | 60.52999 | -146.71776 | 9244 ft | 266 kts | 309° |
| 2026-04-29 13:12 | 60.54204 | -146.74550 | 8871 ft | 256 kts | 309° |
| 2026-04-29 13:12 | 60.55357 | -146.77210 | 8531 ft | 245 kts | 309° |
| 2026-04-29 13:12 | 60.56450 | -146.79732 | 8207 ft | 235 kts | 309° |
| 2026-04-29 13:13 | 60.57516 | -146.82194 | 7883 ft | 224 kts | 309° |
| 2026-04-29 13:13 | 60.58511 | -146.84494 | 7582 ft | 212 kts | 309° |
| 2026-04-29 13:13 | 60.59454 | -146.86678 | 7295 ft | 199 kts | 309° |
| 2026-04-29 13:13 | 60.60330 | -146.88702 | 7010 ft | 184 kts | 309° |
| 2026-04-29 13:14 | 60.61137 | -146.90567 | 6727 ft | 167 kts | 309° |
| 2026-04-29 13:14 | 60.61879 | -146.92290 | 6269 ft | 159 kts | 308° |
| 2026-04-29 13:14 | 60.62614 | -146.94002 | 5583 ft | 166 kts | 310° |
| 2026-04-29 13:14 | 60.63357 | -146.95726 | 5104 ft | 157 kts | 311° |
| 2026-04-29 13:15 | 60.64064 | -146.97372 | 4440 ft | 161 kts | 310° |
| 2026-04-29 13:15 | 60.64787 | -146.99068 | 3805 ft | 158 kts | 311° |
| 2026-04-29 13:15 | 60.65496 | -147.00731 | 3205 ft | 154 kts | 311° |
| 2026-04-29 13:15 | 60.66192 | -147.02367 | 2575 ft | 153 kts | 311° |
| 2026-04-29 13:16 | 60.66879 | -147.03981 | 2004 ft | 149 kts | 311° |
| 2026-04-29 13:16 | 60.67572 | -147.05565 | 1461 ft | 154 kts | 320° |
| 2026-04-29 13:16 | 60.68581 | -147.06134 | 1424 ft | 158 kts | 18° |
| 2026-04-29 13:16 | 60.69615 | -147.05212 | 1525 ft | 174 kts | 26° |
| 2026-04-29 13:17 | 60.70770 | -147.04059 | 1548 ft | 195 kts | 26° |
| 2026-04-29 13:17 | 60.72054 | -147.02748 | 1564 ft | 214 kts | 27° |
| 2026-04-29 13:17 | 60.73432 | -147.01318 | 1575 ft | 231 kts | 27° |
| 2026-04-29 13:17 | 60.74903 | -146.99776 | 1581 ft | 244 kts | 27° |
| 2026-04-29 13:18 | 60.76460 | -146.98126 | 1584 ft | 252 kts | 27° |
| 2026-04-29 13:18 | 60.77941 | -146.96559 | 1542 ft | 230 kts | 27° |
| 2026-04-29 13:18 | 60.79292 | -146.95120 | 1502 ft | 207 kts | 27° |
| 2026-04-29 13:18 | 60.80497 | -146.93817 | 1459 ft | 184 kts | 28° |
| 2026-04-29 13:19 | 60.81547 | -146.92668 | 1406 ft | 160 kts | 28° |
| 2026-04-29 13:19 | 60.82468 | -146.91644 | 1327 ft | 148 kts | 29° |
| 2026-04-29 13:19 | 60.83418 | -146.90611 | 1247 ft | 163 kts | 20° |
| 2026-04-29 13:19 | 60.84555 | -146.90779 | 1172 ft | 175 kts | 327° |
| 2026-04-29 13:20 | 60.85168 | -146.92886 | 1147 ft | 183 kts | 273° |
| 2026-04-29 13:20 | 60.85048 | -146.95511 | 1199 ft | 187 kts | 271° |
| 2026-04-29 13:20 | 60.85464 | -146.97992 | 1229 ft | 186 kts | 311° |
| 2026-04-29 13:20 | 60.86548 | -146.99394 | 1281 ft | 184 kts | 349° |
| 2026-04-29 13:21 | 60.87811 | -146.99658 | 1397 ft | 185 kts | 356° |
| 2026-04-29 13:21 | 60.89103 | -146.99605 | 1505 ft | 185 kts | 16° |
| 2026-04-29 13:21 | 60.90174 | -146.98213 | 1597 ft | 185 kts | 46° |
| 2026-04-29 13:21 | 60.91026 | -146.96191 | 1743 ft | 185 kts | 49° |
| 2026-04-29 13:22 | 60.91870 | -146.94151 | 1842 ft | 189 kts | 49° |
| 2026-04-29 13:22 | 60.92727 | -146.92082 | 1883 ft | 195 kts | 49° |
| 2026-04-29 13:22 | 60.93624 | -146.89912 | 1904 ft | 204 kts | 49° |
| 2026-04-29 13:22 | 60.94578 | -146.87611 | 1914 ft | 216 kts | 49° |
| 2026-04-29 13:23 | 60.95580 | -146.85194 | 1917 ft | 227 kts | 49° |
| 2026-04-29 13:23 | 60.96617 | -146.82709 | 1911 ft | 231 kts | 49° |
| 2026-04-29 13:23 | 60.97649 | -146.80229 | 1908 ft | 231 kts | 49° |
| 2026-04-29 13:23 | 60.98703 | -146.77699 | 1908 ft | 231 kts | 49° |
| 2026-04-29 13:24 | 60.99744 | -146.75198 | 1903 ft | 230 kts | 49° |
| 2026-04-29 13:24 | 61.00787 | -146.72682 | 1898 ft | 230 kts | 49° |
| 2026-04-29 13:24 | 61.01823 | -146.70165 | 1893 ft | 229 kts | 49° |
| 2026-04-29 13:24 | 61.02866 | -146.67644 | 1889 ft | 228 kts | 49° |
| 2026-04-29 13:25 | 61.03896 | -146.65160 | 1885 ft | 228 kts | 49° |
| 2026-04-29 13:25 | 61.05222 | -146.61938 | 1707 ft | 7 kts | 59° |
| 2026-04-29 13:25 | 61.05120 | -146.62158 | 1500 ft | 32 kts | 172° |
| 2026-04-29 13:26 | 61.04658 | -146.62439 | 121 ft | 155 kts | 193° |